MMLOMMPN

Guest
Details From MMLO - GUANAJUATO INTL
To MMPN - LICENCIADO Y GEN IGNACIO LOPEZ RAYON
Flight Number -
Tags generated
Created
Modified
Stats Distance 101 nm / 187 km
Max Altitude 0 ft / 0 m
Waypoints 3
Social Downloads 3
Likes 0
Share VATSIM

Download

Looking for another format? Having issues loading an existing format? Contact us
Advertisement - Login to hide

Notes

Basic altitude profile: - Ascent Rate: 2500ft/min - Ascent Speed: 250kts - Cruise Altitude: 35000ft - Cruise Speed: 420kts - Descent Rate: 1500ft/min - Descent Speed: 250kts Options: - Use NATs: yes - Use PACOTS: yes - Use low airways: yes - Use high airways: yes

Route

MMLO UPN MMPN

ID Type Via Altitude Latitude Longitude Leg Dist Tot Dist Heading (true) Name
O MMLO APT - 0 ft / 0 m 20.99346˚ -101.48085˚ - 0 nm - GUANAJUATO INTL
UPN VOR - 0 ft / 0 m 19.39576˚ -102.04109˚ 101 nm 101 nm 198° / 198° URUAPAN VOR-DME
O MMPN APT - 0 ft / 0 m 19.39669˚ -102.03906˚ 0 nm 101 nm 64° / 64° LICENCIADO Y GEN IGNACIO LOPEZ RAYON

Altitude Profile

Advertisement - Login to hide

MMLO

Details ICAO MMLO (BJX)
Name GUANAJUATO INTL
Region Mexico
Timezone America/Mexico_City (UTC-6.0)
Stats Elevation 5,956 ft / 1,815 m (AMSL)
Location 20.993462° -101.480847°
Runways 1
Magnetic Variation 5.585° E

METAR

Not found

TAF

TAF MMLO 170517Z 1706/1806 00000KT P6SM SCT030 BKN250 FM171600 24010KT P6SM SCT030 BKN100 TEMPO 1716/1720 5SM RA BKN020 FM172000 23010KT P6SM SCT030 OVC200 FM180200 23005KT P6SM SCT100 BKN250

Decode

Departure Runways

ID Width Length Bearing (true) Bearing (mag) Surface Threshold Offset Overrun Length
13 148 ft / 45 m 11,451 ft / 3,490 m 134.09° 128.51° Asphalt 0 ft / 0 m 204 ft / 62 m
31 148 ft / 45 m 11,451 ft / 3,490 m 314.10° 308.52° Asphalt 0 ft / 0 m 204 ft / 62 m

MMPN

Details ICAO MMPN (UPN)
Name LICENCIADO Y GEN IGNACIO LOPEZ RAYON
Region Mexico
Timezone America/Mexico_City (UTC-6.0)
Stats Elevation 5,258 ft / 1,603 m (AMSL)
Location 19.396692° -102.039056°
Runways 1
Magnetic Variation 5.793° E

METAR

Not found

TAF

TAF MMPN 170517Z 1706/1806 00000KT P6SM SCT030 BKN250 FM171800 18010KT P6SM SCT030 OVC250 FM180200 00000KT P6SM BKN250

Decode

Destination Runways

ID Width Length Bearing (true) Bearing (mag) Surface Threshold Offset Overrun Length
02 148 ft / 45 m 7,920 ft / 2,414 m 31.16° 25.37° Asphalt 0 ft / 0 m 200 ft / 61 m
20 148 ft / 45 m 7,920 ft / 2,414 m 211.16° 205.37° Asphalt 0 ft / 0 m 200 ft / 61 m

Popular Alternatives